Time;durP1;ratioP1;P1;durP2;ratioP2;P2;SDS_P1;SDS_P2;PMS_P1;PMS_P2;Temp;Humidity;BMP_temperature;BMP_pressure;BME280_temperature;BME280_humidity;BME280_pressure;Samples;Min_cycle;Max_cycle;Signal;HPM_P1;HPM_P2
2023/11/29 00:01:13;;;;;;;10.10;8.38;;;1.60;92.00;;;;;;6209959;28;20073;-79
2023/11/29 00:04:15;;;;;;;9.32;7.63;;;1.50;92.00;;;;;;6206392;28;20057;-79
2023/11/29 00:07:17;;;;;;;8.10;7.30;;;1.50;92.10;;;;;;6204708;28;20038;-78
2023/11/29 00:10:18;;;;;;;9.32;8.00;;;1.50;92.10;;;;;;6205165;28;20042;-79
2023/11/29 00:13:20;;;;;;;10.32;9.15;;;1.50;92.10;;;;;;6213858;28;20047;-79
2023/11/29 00:16:23;;;;;;;16.33;10.25;;;1.40;92.10;;;;;;6213285;28;20042;-78
2023/11/29 00:19:25;;;;;;;10.25;9.05;;;1.40;92.20;;;;;;6224715;28;20050;-78
2023/11/29 00:22:27;;;;;;;10.20;9.02;;;1.50;92.30;;;;;;6225241;28;20046;-79
2023/11/29 00:25:28;;;;;;;9.55;8.48;;;1.50;92.30;;;;;;6225723;28;20048;-79
2023/11/29 00:28:30;;;;;;;12.40;9.88;;;1.50;92.20;;;;;;6221418;28;20073;-79
2023/11/29 00:31:34;;;;;;;11.43;9.30;;;1.40;92.20;;;;;;6230097;28;20129;-79
2023/11/29 00:34:36;;;;;;;14.23;11.32;;;1.40;92.20;;;;;;6224350;28;20049;-78
2023/11/29 00:37:38;;;;;;;10.68;9.63;;;1.40;92.20;;;;;;6223819;28;20046;-78
2023/11/29 00:40:40;;;;;;;15.85;11.07;;;1.30;92.20;;;;;;6212140;28;20073;-78
2023/11/29 00:43:41;;;;;;;12.93;9.13;;;1.30;92.30;;;;;;6208446;28;20052;-78
2023/11/29 00:46:45;;;;;;;11.18;9.93;;;1.30;92.30;;;;;;6203997;28;20047;-78
2023/11/29 00:49:46;;;;;;;12.70;10.55;;;1.30;92.40;;;;;;6209194;28;20048;-78
2023/11/29 00:52:48;;;;;;;11.77;10.13;;;1.30;92.30;;;;;;6209080;28;20073;-78
2023/11/29 00:55:50;;;;;;;12.80;8.90;;;1.30;92.10;;;;;;6218374;28;20052;-78
2023/11/29 00:58:51;;;;;;;12.25;9.63;;;1.10;92.10;;;;;;6209903;28;20045;-79
2023/11/29 01:01:54;;;;;;;11.90;8.93;;;1.10;92.20;;;;;;6226237;28;20419;-78
2023/11/29 01:04:56;;;;;;;13.27;9.90;;;1.10;92.20;;;;;;6214566;28;20064;-79
2023/11/29 01:07:58;;;;;;;11.77;9.82;;;1.00;92.20;;;;;;6220361;28;20062;-79
2023/11/29 01:11:00;;;;;;;11.68;9.38;;;1.00;92.20;;;;;;6210034;28;20049;-79
2023/11/29 01:14:01;;;;;;;11.70;9.05;;;0.90;92.20;;;;;;6219308;28;20046;-78
2023/11/29 01:17:05;;;;;;;10.10;8.40;;;0.80;92.10;;;;;;6219028;28;20052;-79
2023/11/29 01:20:07;;;;;;;12.20;9.35;;;0.70;92.10;;;;;;6216173;28;20072;-78
2023/11/29 01:23:09;;;;;;;12.10;9.32;;;0.60;92.10;;;;;;6200803;28;20042;-78
2023/11/29 01:26:11;;;;;;;13.43;9.25;;;0.40;92.10;;;;;;6200519;28;20043;-78
2023/11/29 01:29:13;;;;;;;12.25;9.73;;;0.30;92.20;;;;;;6200872;28;20050;-78
2023/11/29 01:32:16;;;;;;;16.57;9.73;;;0.30;92.20;;;;;;6202762;28;20420;-78
2023/11/29 01:35:18;;;;;;;11.38;9.57;;;0.10;92.20;;;;;;6201519;28;20046;-78
2023/11/29 01:38:19;;;;;;;13.93;11.38;;;0.10;92.40;;;;;;6203971;28;20054;-78
2023/11/29 01:41:21;;;;;;;14.43;11.63;;;0.10;92.40;;;;;;6205876;28;20165;-78
2023/11/29 01:44:23;;;;;;;15.63;10.70;;;0.00;92.40;;;;;;6210129;28;20046;-79
2023/11/29 01:47:26;;;;;;;12.17;8.90;;;-0.10;92.30;;;;;;6209943;28;20045;-78
2023/11/29 01:50:33;;;;;;;15.30;10.57;;;-0.20;92.40;;;;;;6206119;28;20396;-78
2023/11/29 01:53:35;;;;;;;12.30;10.15;;;-0.20;92.50;;;;;;6226641;28;20041;-78
2023/11/29 01:56:37;;;;;;;15.03;11.17;;;-0.10;92.90;;;;;;6227032;28;20042;-79
2023/11/29 01:59:38;;;;;;;21.93;11.93;;;0.00;93.10;;;;;;6221373;28;20053;-78
2023/11/29 02:02:42;;;;;;;20.30;12.10;;;0.20;93.00;;;;;;6215498;28;20052;-78
2023/11/29 02:05:44;;;;;;;18.13;11.87;;;0.30;93.00;;;;;;6224202;28;20038;-77
2023/11/29 02:08:45;;;;;;;17.97;13.63;;;0.40;93.10;;;;;;6216194;28;20056;-78
2023/11/29 02:11:48;;;;;;;17.77;11.73;;;0.60;93.10;;;;;;6202741;28;20058;-78
2023/11/29 02:14:50;;;;;;;18.77;12.50;;;0.60;93.00;;;;;;6232172;28;20042;-78
2023/11/29 02:17:53;;;;;;;18.63;13.65;;;0.80;93.10;;;;;;6211673;28;20050;-78
2023/11/29 02:20:55;;;;;;;19.83;13.43;;;0.90;93.10;;;;;;6203153;28;20049;-78
2023/11/29 02:24:01;;;;;;;21.55;13.02;;;1.00;93.10;;;;;;6209350;28;20072;-79
2023/11/29 02:27:05;;;;;;;19.85;12.07;;;1.10;93.50;;;;;;6200366;28;20046;-78
2023/11/29 02:30:08;;;;;;;16.05;11.13;;;1.20;93.10;;;;;;6201026;28;20053;-79
2023/11/29 02:33:10;;;;;;;21.08;11.65;;;1.30;93.10;;;;;;6200621;28;20503;-78
2023/11/29 02:36:11;;;;;;;17.27;12.40;;;1.30;93.10;;;;;;6209314;28;20435;-79
2023/11/29 02:39:13;;;;;;;14.55;10.70;;;1.40;93.10;;;;;;6203589;28;20050;-78
2023/11/29 02:42:16;;;;;;;15.23;10.75;;;1.50;93.10;;;;;;6208952;28;20042;-78
2023/11/29 02:45:18;;;;;;;13.73;10.38;;;1.60;93.10;;;;;;6210384;28;20527;-79
2023/11/29 02:48:20;;;;;;;14.35;9.85;;;1.60;93.00;;;;;;6217002;28;20046;-78
2023/11/29 02:51:22;;;;;;;14.95;10.18;;;1.60;93.00;;;;;;6207855;28;20061;-79
2023/11/29 02:54:23;;;;;;;16.58;10.15;;;1.70;93.00;;;;;;6238997;23;20050;-78
2023/11/29 02:57:26;;;;;;;14.68;10.38;;;1.70;93.00;;;;;;6221503;28;20042;-77
2023/11/29 03:00:28;;;;;;;17.67;10.10;;;1.70;92.90;;;;;;6221177;28;20042;-78
2023/11/29 03:03:30;;;;;;;16.75;9.75;;;1.70;92.80;;;;;;6221190;28;20046;-77
2023/11/29 03:06:31;;;;;;;14.10;10.88;;;1.70;92.70;;;;;;6221468;28;20038;-79
2023/11/29 03:09:33;;;;;;;17.13;10.20;;;1.70;92.70;;;;;;6220789;28;20042;-78
2023/11/29 03:12:36;;;;;;;13.43;9.43;;;1.70;92.60;;;;;;6221538;28;20057;-78
2023/11/29 03:15:38;;;;;;;13.00;9.63;;;1.70;92.60;;;;;;6221426;28;20045;-79
2023/11/29 03:18:40;;;;;;;13.30;10.13;;;1.70;92.40;;;;;;6220991;28;20065;-79
2023/11/29 03:21:41;;;;;;;15.63;8.60;;;1.60;92.30;;;;;;6221321;28;20057;-78
2023/11/29 03:24:46;;;;;;;15.43;10.60;;;1.60;92.40;;;;;;6222334;28;20049;-79
2023/11/29 03:27:49;;;;;;;15.70;10.60;;;1.50;92.40;;;;;;6221717;28;20042;-79
2023/11/29 03:30:52;;;;;;;13.70;8.75;;;1.60;92.40;;;;;;6220237;28;20037;-81
2023/11/29 03:33:54;;;;;;;14.18;8.35;;;1.60;92.50;;;;;;6221935;28;20050;-81
2023/11/29 03:36:56;;;;;;;13.00;7.63;;;1.60;92.40;;;;;;6225481;28;20053;-77
2023/11/29 03:39:57;;;;;;;15.52;8.93;;;1.60;92.30;;;;;;6226789;28;20650;-78
2023/11/29 03:43:00;;;;;;;11.00;6.82;;;1.60;92.20;;;;;;6225302;28;20069;-78
2023/11/29 03:46:02;;;;;;;16.35;8.30;;;1.50;92.20;;;;;;6224886;28;20046;-79
2023/11/29 03:49:04;;;;;;;14.18;9.88;;;1.50;92.20;;;;;;6224129;28;20045;-78
2023/11/29 03:52:06;;;;;;;12.30;8.45;;;1.50;92.20;;;;;;6224946;28;20046;-78
2023/11/29 03:55:07;;;;;;;12.52;8.05;;;1.50;92.10;;;;;;6216042;28;20057;-78
2023/11/29 03:58:10;;;;;;;14.07;7.47;;;1.50;92.10;;;;;;6224135;28;20128;-77
2023/11/29 04:01:12;;;;;;;13.48;8.52;;;1.50;92.10;;;;;;6224003;28;20046;-78
2023/11/29 04:04:13;;;;;;;10.48;7.55;;;1.50;92.00;;;;;;6225053;28;20050;-81
2023/11/29 04:07:15;;;;;;;14.35;6.97;;;1.60;91.90;;;;;;6226212;28;20042;-80
2023/11/29 04:10:17;;;;;;;9.25;6.75;;;1.60;91.90;;;;;;6226200;28;20046;-80
2023/11/29 04:13:20;;;;;;;11.15;8.25;;;1.60;91.90;;;;;;6227583;28;20054;-79
2023/11/29 04:16:22;;;;;;;11.25;7.55;;;1.60;91.90;;;;;;6228056;28;20061;-79
2023/11/29 04:19:24;;;;;;;8.10;6.70;;;1.60;91.80;;;;;;6226810;28;20053;-81
2023/11/29 04:22:25;;;;;;;12.30;8.50;;;1.70;91.80;;;;;;6227868;28;20053;-80
2023/11/29 04:25:27;;;;;;;15.73;12.13;;;1.80;91.80;;;;;;6226864;28;20419;-79
2023/11/29 04:28:30;;;;;;;17.63;11.75;;;1.80;91.80;;;;;;6225575;28;20600;-77
2023/11/29 04:31:33;;;;;;;28.02;16.40;;;1.90;91.60;;;;;;6228116;28;20522;-80
2023/11/29 04:34:35;;;;;;;17.90;9.25;;;1.90;91.50;;;;;;6226422;28;20481;-81
2023/11/29 04:37:37;;;;;;;10.80;8.25;;;1.90;91.20;;;;;;6226720;28;20038;-80
2023/11/29 04:40:38;;;;;;;21.08;15.15;;;1.90;91.10;;;;;;6225909;28;20053;-79
2023/11/29 04:43:42;;;;;;;10.38;7.47;;;2.00;91.10;;;;;;6226299;28;20570;-79
2023/11/29 04:46:44;;;;;;;8.63;6.30;;;2.00;91.10;;;;;;6225508;28;20064;-77
2023/11/29 04:49:46;;;;;;;37.45;27.77;;;2.00;90.70;;;;;;6224378;28;20124;-80
2023/11/29 04:52:48;;;;;;;8.77;7.80;;;2.10;90.80;;;;;;6223346;28;20046;-78
2023/11/29 04:55:52;;;;;;;12.10;8.48;;;2.10;90.90;;;;;;6223291;28;20057;-78
2023/11/29 04:58:55;;;;;;;9.98;7.40;;;2.10;90.80;;;;;;6222935;28;20072;-79
2023/11/29 05:01:57;;;;;;;12.43;8.18;;;2.10;90.70;;;;;;6225939;28;20049;-78
2023/11/29 05:04:59;;;;;;;10.93;6.32;;;2.20;90.70;;;;;;6224981;28;20050;-78
2023/11/29 05:08:01;;;;;;;11.57;6.63;;;2.20;90.70;;;;;;6226538;28;20042;-78
2023/11/29 05:11:04;;;;;;;11.65;7.63;;;2.20;90.70;;;;;;6226367;28;20050;-78
2023/11/29 05:14:07;;;;;;;9.10;7.45;;;2.30;90.70;;;;;;6226000;28;20050;-80
2023/11/29 05:17:08;;;;;;;10.43;6.22;;;2.30;90.50;;;;;;6225839;28;20530;-78
2023/11/29 05:20:11;;;;;;;8.32;5.78;;;2.30;90.30;;;;;;6225330;28;20411;-78
2023/11/29 05:23:13;;;;;;;7.65;5.97;;;2.30;90.10;;;;;;6215984;28;20050;-79
2023/11/29 05:26:14;;;;;;;9.32;6.82;;;2.30;90.00;;;;;;6224895;28;20042;-79
2023/11/29 05:29:17;;;;;;;9.73;6.22;;;2.30;89.40;;;;;;6229950;28;20054;-79
2023/11/29 05:32:19;;;;;;;10.70;6.80;;;2.30;89.80;;;;;;6233411;28;20517;-80
2023/11/29 05:35:21;;;;;;;8.68;6.68;;;2.40;89.60;;;;;;6225120;28;20050;-79
2023/11/29 05:38:23;;;;;;;8.63;6.10;;;2.50;89.70;;;;;;6223781;28;20046;-80
2023/11/29 05:41:25;;;;;;;6.63;5.13;;;2.50;89.30;;;;;;6223594;28;20058;-80
2023/11/29 05:44:28;;;;;;;7.70;6.45;;;2.60;89.30;;;;;;6225060;28;20050;-79
2023/11/29 05:47:30;;;;;;;8.23;6.15;;;2.60;89.40;;;;;;6224868;28;20045;-80
2023/11/29 05:50:31;;;;;;;9.50;6.40;;;2.60;89.00;;;;;;6224798;28;20073;-80
2023/11/29 05:53:33;;;;;;;7.43;5.85;;;2.60;88.80;;;;;;6223843;28;20050;-80
2023/11/29 05:56:35;;;;;;;8.43;6.75;;;2.60;88.60;;;;;;6223308;28;20414;-79
2023/11/29 05:59:38;;;;;;;5.88;5.22;;;2.60;87.10;;;;;;6222296;28;20609;-78
2023/11/29 06:02:40;;;;;;;7.07;5.50;;;2.50;87.30;;;;;;6223354;28;20064;-78
2023/11/29 06:05:41;;;;;;;6.43;5.53;;;2.40;87.60;;;;;;6224296;28;20045;-80
2023/11/29 06:08:43;;;;;;;6.55;5.40;;;2.40;87.90;;;;;;6172731;28;20041;-79
2023/11/29 06:11:45;;;;;;;8.57;6.07;;;2.40;87.90;;;;;;6223063;28;20050;-79
2023/11/29 06:14:48;;;;;;;6.07;4.97;;;2.40;87.90;;;;;;6221546;28;20050;-78
2023/11/29 06:17:50;;;;;;;7.78;5.53;;;2.40;87.70;;;;;;6221709;28;20094;-79
2023/11/29 06:20:51;;;;;;;5.93;4.78;;;2.30;87.50;;;;;;6221545;28;20049;-77
2023/11/29 06:23:53;;;;;;;10.75;5.50;;;2.20;87.50;;;;;;6225626;28;20045;-82
2023/11/29 06:26:55;;;;;;;6.72;5.50;;;2.20;87.50;;;;;;6206079;28;20438;-80
2023/11/29 06:29:58;;;;;;;8.32;5.32;;;2.10;87.30;;;;;;6213329;28;20045;-78
2023/11/29 06:33:00;;;;;;;8.85;5.35;;;2.10;87.40;;;;;;6213713;28;20042;-77
2023/11/29 06:36:03;;;;;;;10.07;6.20;;;2.20;87.40;;;;;;6207924;28;20405;-79
2023/11/29 06:39:04;;;;;;;8.25;6.80;;;2.30;87.80;;;;;;6207072;28;20100;-79
2023/11/29 06:42:06;;;;;;;9.23;6.75;;;2.40;87.00;;;;;;6207822;28;20046;-78
2023/11/29 06:45:10;;;;;;;6.60;5.55;;;2.50;87.00;;;;;;6208781;28;20046;-78
2023/11/29 06:48:12;;;;;;;7.30;6.28;;;2.60;86.20;;;;;;6221663;28;20668;-79
2023/11/29 06:51:14;;;;;;;10.00;7.25;;;2.70;86.00;;;;;;6221163;28;20046;-78
2023/11/29 06:54:16;;;;;;;6.85;5.43;;;2.70;86.40;;;;;;6223040;28;20535;-78
2023/11/29 06:57:17;;;;;;;9.30;6.05;;;2.70;86.40;;;;;;6223341;28;20042;-82
2023/11/29 07:00:21;;;;;;;9.15;5.20;;;2.70;86.30;;;;;;6222630;28;20045;-79
2023/11/29 07:03:26;;;;;;;6.45;4.90;;;2.70;86.10;;;;;;6222157;28;20541;-80
2023/11/29 07:06:27;;;;;;;7.50;5.70;;;2.80;86.60;;;;;;6222820;28;20069;-80
2023/11/29 07:09:29;;;;;;;5.97;5.15;;;2.80;86.20;;;;;;6224548;28;20046;-80
2023/11/29 07:12:32;;;;;;;6.45;5.18;;;2.80;84.60;;;;;;6226912;28;20049;-80
2023/11/29 07:15:35;;;;;;;6.53;5.20;;;2.90;83.60;;;;;;6227021;28;20050;-79
2023/11/29 07:18:37;;;;;;;6.72;4.85;;;2.90;84.60;;;;;;6226913;28;20049;-79
2023/11/29 07:21:39;;;;;;;7.35;5.32;;;2.90;84.50;;;;;;6212367;28;20131;-83
2023/11/29 07:24:40;;;;;;;6.78;4.72;;;3.00;84.40;;;;;;6212559;28;20463;-80
2023/11/29 07:27:42;;;;;;;5.50;4.07;;;2.90;84.60;;;;;;6214964;28;20491;-79
2023/11/29 07:30:45;;;;;;;6.72;5.97;;;3.00;84.60;;;;;;6217413;28;20395;-79
2023/11/29 07:33:47;;;;;;;6.45;4.07;;;3.00;84.50;;;;;;6213224;28;20041;-79
2023/11/29 07:36:51;;;;;;;7.18;5.28;;;3.00;84.80;;;;;;6217041;28;20045;-78
2023/11/29 07:39:53;;;;;;;7.30;4.63;;;2.90;83.40;;;;;;6215515;28;20046;-79
2023/11/29 07:42:55;;;;;;;6.90;5.43;;;2.90;84.00;;;;;;6212596;28;20490;-78
2023/11/29 07:45:58;;;;;;;6.07;4.55;;;2.90;84.30;;;;;;6218140;28;20511;-79
2023/11/29 07:49:00;;;;;;;9.10;5.32;;;3.00;84.60;;;;;;6220125;28;20053;-77
2023/11/29 07:52:02;;;;;;;6.07;4.00;;;3.00;83.90;;;;;;6225386;28;20049;-80
2023/11/29 07:55:04;;;;;;;6.60;5.90;;;3.10;83.80;;;;;;6217521;28;20053;-78
2023/11/29 07:58:06;;;;;;;6.22;4.80;;;3.20;83.20;;;;;;6213392;28;20049;-82
2023/11/29 08:01:10;;;;;;;9.30;5.88;;;3.10;82.70;;;;;;6214398;28;20131;-81
2023/11/29 08:04:12;;;;;;;8.73;6.40;;;2.90;83.40;;;;;;6221537;28;20055;-78
2023/11/29 08:07:14;;;;;;;8.15;5.85;;;2.70;84.70;;;;;;6218755;28;20045;-78
2023/11/29 08:10:16;;;;;;;9.75;5.43;;;2.50;85.80;;;;;;6219920;28;20057;-78
2023/11/29 08:13:37;;;;;;;8.35;6.70;;;2.30;86.60;;;;;;6216787;28;20050;-80
2023/11/29 08:16:40;;;;;;;9.10;7.18;;;2.20;87.70;;;;;;6213784;28;20042;-79
2023/11/29 08:19:42;;;;;;;10.82;7.45;;;2.10;88.50;;;;;;6219838;28;20046;-78
2023/11/29 08:22:44;;;;;;;10.15;8.18;;;2.20;89.10;;;;;;6222784;28;20057;-79
2023/11/29 08:25:47;;;;;;;8.18;6.88;;;2.20;89.40;;;;;;6234614;28;20098;-80
2023/11/29 08:28:49;;;;;;;9.80;6.72;;;2.20;89.70;;;;;;6233638;28;20049;-79
2023/11/29 08:31:52;;;;;;;10.85;7.22;;;2.30;90.00;;;;;;6220124;28;20058;-79
2023/11/29 08:34:54;;;;;;;10.38;7.40;;;2.40;90.10;;;;;;6218295;28;20074;-79
2023/11/29 08:37:55;;;;;;;11.00;7.40;;;2.50;90.30;;;;;;6220472;28;20050;-79
2023/11/29 08:40:57;;;;;;;9.18;6.00;;;2.80;90.60;;;;;;6219122;28;20061;-79
2023/11/29 08:43:59;;;;;;;10.35;7.35;;;3.00;90.30;;;;;;6215825;28;20072;-78
2023/11/29 08:47:03;;;;;;;9.07;6.35;;;3.10;90.30;;;;;;6217070;28;20049;-79
2023/11/29 08:50:06;;;;;;;8.23;5.72;;;3.10;90.20;;;;;;6231443;28;20076;-78
2023/11/29 08:53:08;;;;;;;7.53;5.35;;;3.20;90.10;;;;;;6230730;28;20052;-80
2023/11/29 08:56:17;;;;;;;8.25;5.40;;;3.40;90.20;;;;;;6269581;22;20122;-80
2023/11/29 08:59:19;;;;;;;7.32;6.20;;;3.50;90.00;;;;;;6229489;28;20041;-81
2023/11/29 09:02:24;;;;;;;5.20;4.70;;;3.40;89.40;;;;;;6228960;28;20050;-79
2023/11/29 09:05:27;;;;;;;7.78;4.65;;;3.40;88.40;;;;;;6206483;28;20051;-78
2023/11/29 09:08:30;;;;;;;10.23;6.28;;;3.40;88.70;;;;;;6179225;28;20518;-80
2023/11/29 09:11:32;;;;;;;4.93;3.90;;;3.40;87.80;;;;;;6201898;28;20050;-80
2023/11/29 09:14:34;;;;;;;5.32;4.55;;;3.40;87.30;;;;;;6194098;28;20151;-78
2023/11/29 09:17:40;;;;;;;5.45;4.68;;;3.40;87.00;;;;;;6187693;28;20042;-79
2023/11/29 09:20:43;;;;;;;6.53;5.38;;;3.50;86.70;;;;;;6201172;28;20050;-79
2023/11/29 09:23:45;;;;;;;7.13;4.30;;;3.50;85.50;;;;;;6180221;28;20126;-79
2023/11/29 09:26:47;;;;;;;8.60;3.75;;;3.60;85.20;;;;;;6198509;28;20054;-79
2023/11/29 09:29:49;;;;;;;5.03;4.00;;;3.70;84.60;;;;;;6193632;28;20046;-79
2023/11/29 09:32:54;;;;;;;7.85;3.50;;;3.90;83.40;;;;;;6183901;28;20046;-79
2023/11/29 09:35:55;;;;;;;5.53;3.35;;;4.00;83.10;;;;;;6205009;28;20514;-79
2023/11/29 09:38:57;;;;;;;4.97;3.58;;;4.10;83.10;;;;;;6183191;28;20038;-78
2023/11/29 09:42:02;;;;;;;4.68;4.22;;;4.20;82.30;;;;;;6191320;28;20462;-79
2023/11/29 09:45:11;;;;;;;4.47;3.78;;;4.10;80.20;;;;;;6199626;28;20515;-79
2023/11/29 09:48:14;;;;;;;7.68;4.22;;;4.00;80.70;;;;;;6179301;28;20066;-79
2023/11/29 09:51:17;;;;;;;5.93;4.25;;;3.90;81.70;;;;;;6201730;28;20046;-79
2023/11/29 09:54:19;;;;;;;5.00;4.03;;;4.00;82.60;;;;;;6188502;28;20138;-79
2023/11/29 09:57:20;;;;;;;4.22;3.33;;;4.10;82.20;;;;;;6186137;28;20050;-79
2023/11/29 10:00:22;;;;;;;6.38;3.95;;;4.10;83.40;;;;;;6203533;28;20422;-79
2023/11/29 10:03:26;;;;;;;6.63;3.88;;;4.10;81.30;;;;;;6181242;28;20047;-79
2023/11/29 10:06:29;;;;;;;5.28;4.78;;;4.10;81.50;;;;;;6194982;28;20054;-79
2023/11/29 10:09:36;;;;;;;4.82;4.38;;;4.20;80.70;;;;;;6202768;28;20061;-79
2023/11/29 10:12:38;;;;;;;6.00;4.30;;;4.40;80.50;;;;;;6202757;28;20072;-79
2023/11/29 10:15:45;;;;;;;4.45;3.72;;;4.50;79.30;;;;;;6203679;28;20050;-78
2023/11/29 10:18:48;;;;;;;5.07;3.83;;;4.50;79.70;;;;;;6203367;28;20049;-79
2023/11/29 10:21:51;;;;;;;5.28;4.25;;;4.40;80.50;;;;;;6191773;28;20298;-78
2023/11/29 10:24:53;;;;;;;5.05;4.18;;;4.50;81.50;;;;;;6183207;28;20511;-79
2023/11/29 10:27:55;;;;;;;5.85;4.28;;;4.50;81.50;;;;;;6205115;28;20052;-80
2023/11/29 10:30:57;;;;;;;4.65;3.83;;;5.00;80.70;;;;;;6183467;28;20049;-80
2023/11/29 10:34:01;;;;;;;5.43;3.78;;;5.40;80.30;;;;;;6191423;28;20049;-79
2023/11/29 10:37:03;;;;;;;4.03;3.63;;;5.50;81.20;;;;;;6199350;28;20050;-78
2023/11/29 10:40:07;;;;;;;5.00;4.10;;;5.70;79.00;;;;;;6180315;28;20053;-79
2023/11/29 10:43:12;;;;;;;4.47;4.00;;;6.10;77.50;;;;;;6213837;28;20110;-79
2023/11/29 10:46:20;;;;;;;4.72;3.78;;;6.20;75.40;;;;;;6200978;28;20051;-80
2023/11/29 10:49:30;;;;;;;5.35;4.10;;;6.00;75.20;;;;;;6191988;28;20042;-80
2023/11/29 10:52:33;;;;;;;4.25;3.60;;;6.10;76.70;;;;;;6189323;28;20053;-80
2023/11/29 10:55:38;;;;;;;4.32;3.63;;;5.90;74.60;;;;;;6205405;28;20423;-80
2023/11/29 10:58:47;;;;;;;4.35;3.63;;;6.00;76.50;;;;;;6204728;28;20054;-80
2023/11/29 11:01:48;;;;;;;3.50;3.17;;;6.30;76.50;;;;;;6203958;28;20122;-80
2023/11/29 11:05:03;;;;;;;3.83;3.10;;;6.70;77.50;;;;;;6204113;28;20402;-79
2023/11/29 11:08:06;;;;;;;5.03;3.20;;;7.10;75.20;;;;;;6201759;28;20136;-79
2023/11/29 11:11:08;;;;;;;3.20;2.80;;;7.30;73.30;;;;;;6203037;28;20042;-80
2023/11/29 11:14:17;;;;;;;3.95;3.40;;;7.50;72.30;;;;;;6188863;28;20055;-79
2023/11/29 11:17:22;;;;;;;3.67;2.90;;;7.60;71.60;;;;;;6179584;28;20049;-79
2023/11/29 11:20:39;;;;;;;3.53;3.22;;;7.70;69.60;;;;;;6195358;28;20549;-81
2023/11/29 11:23:41;;;;;;;4.47;2.88;;;7.90;69.10;;;;;;6172913;28;20043;-81
2023/11/29 11:27:07;;;;;;;3.90;3.25;;;8.00;70.70;;;;;;6185749;28;22825;-81
2023/11/29 11:30:33;;;;;;;3.75;3.20;;;7.80;66.70;;;;;;6179582;28;20051;-81
2023/11/29 11:34:12;;;;;;;4.03;3.05;;;7.50;68.40;;;;;;6173200;28;20050;-79
2023/11/29 11:37:15;;;;;;;2.60;2.40;;;7.50;67.50;;;;;;6182058;28;20046;-80
2023/11/29 11:40:18;;;;;;;7.47;3.63;;;7.50;68.70;;;;;;6194107;28;20427;-78
2023/11/29 11:43:20;;;;;;;3.90;3.50;;;7.60;70.10;;;;;;6193017;28;20050;-80
2023/11/29 11:46:22;;;;;;;4.10;3.80;;;7.60;69.90;;;;;;6192118;28;20431;-80
2023/11/29 11:49:23;;;;;;;4.68;3.20;;;7.60;70.00;;;;;;6192663;28;20046;-80
2023/11/29 11:52:27;;;;;;;3.72;3.42;;;7.60;68.00;;;;;;6193243;28;20380;-80
2023/11/29 11:55:29;;;;;;;4.45;4.05;;;7.40;70.90;;;;;;6193716;28;20054;-80
2023/11/29 11:58:31;;;;;;;4.63;3.85;;;7.20;71.30;;;;;;6186540;28;20129;-80
2023/11/29 12:01:33;;;;;;;6.22;4.50;;;7.10;73.20;;;;;;6189366;28;20081;-81
2023/11/29 12:04:35;;;;;;;5.88;5.38;;;7.00;73.00;;;;;;6206834;28;20412;-81
2023/11/29 12:07:40;;;;;;;29.55;20.42;;;6.80;72.20;;;;;;6206807;28;20496;-81
2023/11/29 12:10:42;;;;;;;5.38;3.60;;;6.60;71.10;;;;;;6188330;28;20069;-81
2023/11/29 12:13:45;;;;;;;17.35;14.52;;;6.50;71.80;;;;;;6185739;28;20042;-79
2023/11/29 12:16:51;;;;;;;17.73;10.90;;;6.50;72.30;;;;;;6202759;28;20499;-80
2023/11/29 12:19:53;;;;;;;10.13;7.15;;;6.40;71.40;;;;;;6197930;28;20073;-80
2023/11/29 12:22:57;;;;;;;9.90;9.07;;;6.20;70.80;;;;;;6198560;28;20053;-79
2023/11/29 12:25:59;;;;;;;5.38;4.30;;;6.00;72.60;;;;;;6197173;28;20045;-79
2023/11/29 12:29:01;;;;;;;60.90;45.35;;;5.80;72.80;;;;;;6196570;28;20519;-80
2023/11/29 12:32:03;;;;;;;13.70;12.40;;;5.50;74.90;;;;;;6198118;28;20193;-80
2023/11/29 12:35:06;;;;;;;8.00;6.55;;;5.30;76.40;;;;;;6196965;28;20065;-80
2023/11/29 12:38:09;;;;;;;28.27;20.48;;;5.20;78.10;;;;;;6196769;28;20651;-79
2023/11/29 12:41:11;;;;;;;18.33;15.95;;;5.10;79.60;;;;;;6198110;28;20136;-79
2023/11/29 12:44:13;;;;;;;30.05;27.25;;;5.10;80.30;;;;;;6196102;28;20629;-78
2023/11/29 12:47:21;;;;;;;6.00;5.40;;;5.20;81.10;;;;;;6198323;28;20050;-78
2023/11/29 12:50:22;;;;;;;8.40;5.40;;;5.10;81.00;;;;;;6200352;28;20046;-80
2023/11/29 12:53:25;;;;;;;12.13;10.07;;;5.10;81.10;;;;;;6198427;28;20050;-78
2023/11/29 12:56:27;;;;;;;10.68;9.45;;;5.00;81.10;;;;;;6198574;28;20069;-78
2023/11/29 12:59:29;;;;;;;13.40;12.10;;;5.00;81.60;;;;;;6204338;28;20054;-80
2023/11/29 13:02:31;;;;;;;11.25;10.07;;;4.90;81.80;;;;;;6202753;28;20053;-80
2023/11/29 13:05:33;;;;;;;7.00;6.22;;;4.90;82.40;;;;;;6209965;28;20054;-80
2023/11/29 13:08:36;;;;;;;31.20;24.67;;;4.80;82.70;;;;;;6203987;28;20042;-80
2023/11/29 13:11:39;;;;;;;8.10;6.45;;;4.70;83.40;;;;;;6211293;28;20061;-80
2023/11/29 13:14:42;;;;;;;6.97;6.25;;;4.60;83.90;;;;;;6204537;28;20053;-79
2023/11/29 13:17:44;;;;;;;14.90;13.05;;;4.60;84.40;;;;;;6203662;28;20118;-80
2023/11/29 13:20:45;;;;;;;17.58;12.25;;;4.50;85.20;;;;;;6203298;28;20050;-77
2023/11/29 13:23:48;;;;;;;11.88;10.65;;;4.50;85.60;;;;;;6206784;28;20068;-81
2023/11/29 13:26:50;;;;;;;26.45;17.88;;;4.50;85.90;;;;;;6204380;28;20483;-79
2023/11/29 13:29:52;;;;;;;18.25;11.98;;;4.50;86.20;;;;;;6199446;28;20043;-79
2023/11/29 13:32:54;;;;;;;16.10;11.43;;;4.40;86.50;;;;;;6194113;28;20419;-80
2023/11/29 13:35:56;;;;;;;12.18;8.43;;;4.30;86.50;;;;;;6193850;28;20050;-79
2023/11/29 13:38:59;;;;;;;18.08;9.68;;;4.30;87.10;;;;;;6193440;28;20125;-79
2023/11/29 13:42:01;;;;;;;12.25;7.38;;;4.30;87.50;;;;;;6193512;28;20665;-78
2023/11/29 13:45:05;;;;;;;15.40;11.55;;;4.30;87.90;;;;;;6194868;28;20054;-79
2023/11/29 13:48:06;;;;;;;92.18;48.83;;;4.30;88.20;;;;;;6194653;28;20057;-79
2023/11/29 13:51:09;;;;;;;12.80;9.32;;;4.20;88.40;;;;;;6192392;28;20046;-79
2023/11/29 13:54:12;;;;;;;102.68;51.13;;;4.20;88.70;;;;;;6193589;28;20393;-78
2023/11/29 13:57:14;;;;;;;71.45;37.85;;;4.20;89.00;;;;;;6187037;28;20054;-80
2023/11/29 14:00:17;;;;;;;143.27;80.93;;;4.20;89.20;;;;;;6168761;28;20050;-79
2023/11/29 14:03:19;;;;;;;103.90;58.95;;;4.20;89.50;;;;;;6170970;28;20053;-79
2023/11/29 14:06:21;;;;;;;74.35;44.58;;;4.10;89.70;;;;;;6175065;28;20182;-79
2023/11/29 14:09:24;;;;;;;89.78;51.80;;;4.20;90.30;;;;;;6175633;28;20124;-78
2023/11/29 14:12:26;;;;;;;65.97;42.97;;;4.10;90.00;;;;;;6177598;28;20046;-78
2023/11/29 14:15:27;;;;;;;29.27;17.15;;;4.20;90.20;;;;;;6176645;28;20412;-78
2023/11/29 14:18:29;;;;;;;24.05;16.15;;;4.20;90.30;;;;;;6176467;28;20054;-78
2023/11/29 14:21:31;;;;;;;21.05;12.48;;;4.20;90.50;;;;;;6175425;28;20074;-77
2023/11/29 14:24:34;;;;;;;19.45;14.85;;;4.20;90.50;;;;;;6189636;28;20435;-79
2023/11/29 14:27:36;;;;;;;20.80;18.55;;;4.30;90.60;;;;;;6192730;28;20507;-76
2023/11/29 14:30:38;;;;;;;21.25;17.23;;;4.30;90.70;;;;;;6174218;28;20046;-78
2023/11/29 14:33:39;;;;;;;16.55;11.50;;;4.40;90.70;;;;;;6167148;28;20070;-78
2023/11/29 14:36:44;;;;;;;23.17;15.55;;;4.50;90.90;;;;;;6167994;28;20057;-78
2023/11/29 14:39:48;;;;;;;18.02;14.13;;;4.60;90.90;;;;;;6172843;28;20137;-77
2023/11/29 14:42:49;;;;;;;19.98;16.73;;;4.50;91.00;;;;;;6192573;28;20046;-78
2023/11/29 14:45:51;;;;;;;14.52;11.77;;;4.60;91.10;;;;;;6198608;28;20518;-77
2023/11/29 14:48:53;;;;;;;19.08;15.15;;;4.60;91.10;;;;;;6193681;28;20153;-77
2023/11/29 14:51:54;;;;;;;19.73;14.55;;;4.70;91.20;;;;;;6175248;28;20051;-78
2023/11/29 14:54:58;;;;;;;17.25;12.15;;;4.60;91.10;;;;;;6215697;22;20042;-77
2023/11/29 14:57:59;;;;;;;14.18;11.50;;;4.60;91.10;;;;;;6178560;28;20061;-77
2023/11/29 15:01:02;;;;;;;12.80;10.02;;;4.60;91.20;;;;;;6195208;28;20165;-81
2023/11/29 15:04:04;;;;;;;17.17;11.07;;;4.60;91.20;;;;;;6188327;28;20088;-81
2023/11/29 15:07:06;;;;;;;18.35;13.57;;;4.50;91.30;;;;;;6183189;28;20424;-79
2023/11/29 15:10:10;;;;;;;17.75;14.77;;;4.50;91.30;;;;;;6146598;28;20047;-79
2023/11/29 15:13:11;;;;;;;23.02;18.67;;;4.50;91.40;;;;;;6136215;28;20078;-80
2023/11/29 15:16:13;;;;;;;19.13;15.18;;;4.40;91.40;;;;;;6154638;28;20043;-80
2023/11/29 15:19:15;;;;;;;32.10;21.55;;;4.40;91.40;;;;;;6153307;28;20544;-77
2023/11/29 15:22:17;;;;;;;20.65;14.63;;;4.40;91.50;;;;;;6142277;29;20051;-81
2023/11/29 15:25:20;;;;;;;16.00;10.68;;;4.40;91.50;;;;;;6144580;28;20054;-78
2023/11/29 15:28:23;;;;;;;15.98;13.00;;;4.30;91.50;;;;;;6180003;28;20051;-81
2023/11/29 15:31:24;;;;;;;18.60;14.60;;;4.30;91.60;;;;;;6156699;28;20063;-81
2023/11/29 15:34:26;;;;;;;17.83;14.60;;;4.30;91.70;;;;;;6173320;28;20043;-83
2023/11/29 15:37:28;;;;;;;16.50;10.15;;;4.30;91.70;;;;;;6152866;28;20039;-78
2023/11/29 15:40:31;;;;;;;23.88;19.27;;;4.30;91.70;;;;;;6133920;29;20058;-80
2023/11/29 15:43:33;;;;;;;20.83;16.00;;;4.30;91.70;;;;;;6157479;28;20047;-81
2023/11/29 15:46:36;;;;;;;27.55;16.80;;;4.30;91.80;;;;;;6140783;29;20381;-81
2023/11/29 15:49:37;;;;;;;18.92;11.95;;;4.30;91.80;;;;;;6140630;28;20386;-80
2023/11/29 15:52:39;;;;;;;15.23;11.00;;;4.30;91.80;;;;;;6167499;28;20360;-80